METAR stanice u blizini

 

LYBE - Beograd / Surčin, Srbija
Ažurirano: 19/06/2018 04:30
Partly Cloudy
Partly Cloudy
 Pravac vetra ZJZ
Vetar: ZJZ 6 km/h
Temperatura: 19°C
Tačka rose: 18°C
Vlažnost: 94%
Pritisak: 1016 hPa
Oblaci: Partly Cloudy
Vidljivost: 8 km
Cloud details: Few Clouds 488 m
Partly Cloudy 1219 m
2018/06/19 02:30 LYBE 190230Z 25003KT 8000 FEW016 SCT040 19/18 Q1016 NOSIG
LYBT - Beograd / Batajnica, Srbija
Ažurirano: 19/06/2018 04:30
Partly Cloudy
Partly Cloudy
 Pravac vetra calm
Vetar: Tišina
Temperatura: 19°C
Tačka rose: 18°C
Vlažnost: 94%
Pritisak: 1016 hPa
Oblaci: Partly Cloudy
Vidljivost: 10 km
Cloud details: Partly Cloudy 1219 m
2018/06/19 02:30 LYBT 190230Z 00000KT 9999 SCT040 19/18 Q1016 NOSIG
LYVR - Vršac, Srbija
Ažurirano: 19/06/2018 04:30
Vedro
Vedro
 Pravac vetra ZJZ
Vetar: ZJZ 6 km/h
Temperatura: 18°C
Tačka rose: 18°C
Vlažnost: 100%
Pritisak: 1015 hPa
Pregled: Vedro
Vidljivost: greater than 10 km
2018/06/19 02:30 LYVR 190230Z 24003KT CAVOK 18/18 Q1015 NOSIG
 
LYKV - Lađevci, Srbija
Ažurirano: 19/06/2018 04:30
Mostly Cloudy
Mostly Cloudy
 Pravac vetra varies
Vetar: varies 4 km/h
Temperatura: 18°C
Tačka rose: 17°C
Vlažnost: 94%
Pritisak: 1017 hPa
Oblaci: Mostly Cloudy
Vidljivost: 10 km
Cloud details: Few Clouds 823 m
Mostly Cloudy 1219 m
2018/06/19 02:30 LYKV 190230Z VRB02KT 9999 FEW027 BKN040 18/17 Q1017 NOSIG
LYNI - Niš, Srbija
Ažurirano: 19/06/2018 04:30
Slaba kiša, Pretežno oblačno
Slaba kiša, Pretežno oblačno
 Pravac vetra SSZ
Vetar: SSZ 7 km/h
Temperatura: 18°C
Tačka rose: 17°C
Vlažnost: 94%
Pritisak: 1016 hPa
Pregled: Light Rain
Oblaci: Mostly Cloudy
Vidljivost: 10 km
Cloud details: Few Clouds 305 m
Mostly Cloudy 914 m
2018/06/19 02:30 LYNI 190230Z 33004KT 9999 -RA FEW010 BKN030 18/17 Q1016 NOSIG
BKPR - Priština, Srbija
Ažurirano: 19/06/2018 05:00
Vedro
Vedro
 Pravac vetra varies
Vetar: varies 6 km/h
Temperatura: 17°C
Tačka rose: 13°C
Vlažnost: 77%
Pritisak: 1017 hPa
Pregled: Vedro
Vidljivost: greater than 10 km
2018/06/19 03:00 BKPR 190300Z VRB03KT CAVOK 17/13 Q1017 NOSIG
 
LHPP - Pecs / Pogany, Hungary
Ažurirano: 18/06/2018 18:45
NOT Current
Mostly Cloudy
Mostly Cloudy
 Pravac vetra S
Vetar: S 17 km/h
Temperatura: 23°C
Tačka rose: 16°C
Vlažnost: 65%
Pritisak: 1016 hPa
Oblaci: Mostly Cloudy
Vidljivost: 10 km
Cloud details: Few Clouds 1311 m
Mostly Cloudy 2530 m
2018/06/18 16:45 LHPP 181645Z 36009KT 9999 FEW043 BKN083 23/16 Q1016
LHUD - Szeged, Hungary
Ažurirano: 19/06/2018 03:45
Vedro
Vedro
 Pravac vetra SSZ
Vetar: SSZ 11 km/h
Temperatura: 18°C
Tačka rose: 17°C
Vlažnost: 94%
Pritisak: 1016 hPa
Pregled: Vedro
Vidljivost: greater than 10 km
2018/06/19 01:45 LHUD 190145Z 33006KT CAVOK 18/17 Q1016
LRTR - Timisoara, Romania
Ažurirano: 19/06/2018 04:30
Mist, Delimično oblačno
Mist, Delimično oblačno
 Pravac vetra SSI
Vetar: SSI 9 km/h
Temperatura: 17°C
Tačka rose: 17°C
Vlažnost: 100%
Pritisak: 1015 hPa
Pregled: Mist
Oblaci: Partly Cloudy
Vidljivost: 4 km
2018/06/19 02:30 LRTR 190230Z 03005KT 4000 BR NSC 17/17 Q1015
 
LRCV - Craiova, Romania
Ažurirano: 19/06/2018 04:30
Mostly Cloudy
Mostly Cloudy
 Pravac vetra ZSZ
Vetar: ZSZ 6 km/h
Temperatura: 17°C
Tačka rose: 16°C
Vlažnost: 94%
Pritisak: 1015 hPa
Oblaci: Mostly Cloudy
Vidljivost: 10 km
Cloud details: Mostly Cloudy 3048 m
2018/06/19 02:30 LRCV 190230Z AUTO 30003KT 9999 BKN100/// 17/16 Q1015
LBSF - Sofia, Bulgaria
Ažurirano: 19/06/2018 04:30
Partly Cloudy
Partly Cloudy
 Pravac vetra varies
Vetar: varies 4 km/h
Temperatura: 15°C
Tačka rose: 14°C
Vlažnost: 94%
Pritisak: 1016 hPa
Oblaci: Partly Cloudy
Vidljivost: 8 km
2018/06/19 02:30 LBSF 190230Z VRB02KT 8000 NSC 15/14 Q1016 TEMPO 5000 BR
LWSK - Skoplje, Makedonija
Ažurirano: 19/06/2018 05:00
Few Clouds
Few Clouds
 Pravac vetra varies
Vetar: varies 2 km/h
Temperatura: 17°C
Tačka rose: 15°C
Vlažnost: 88%
Pritisak: 1016 hPa
Oblaci: Few Clouds
Vidljivost: 10 km
Cloud details: Few Clouds 1219 m
2018/06/19 03:00 LWSK 190300Z VRB01KT 9999 FEW040 17/15 Q1016 NOSIG
 
LYPG - Podgorica, Crna Gora
Ažurirano: 19/06/2018 04:30
Partly Cloudy
Partly Cloudy
 Pravac vetra S
Vetar: S 19 km/h
Temperatura: 24°C
Tačka rose: 12°C
Vlažnost: 47%
Pritisak: 1013 hPa
Oblaci: Partly Cloudy
Vidljivost: 10 km
Cloud details: Partly Cloudy 2743 m
2018/06/19 02:30 LYPG 190230Z 36010KT 340V140 9999 SCT090 24/12 Q1013 NOSIG
LQSA - Sarajevo, Bosna i Hercegovina
Ažurirano: 19/06/2018 04:00
Mostly Cloudy
Mostly Cloudy
 Pravac vetra varies
Vetar: varies 4 km/h
Temperatura: 16°C
Tačka rose: 16°C
Vlažnost: 100%
Pritisak: 1018 hPa
Oblaci: Mostly Cloudy
Vidljivost: 6 km
Cloud details: Partly Cloudy 396 m
Mostly Cloudy 914 m
2018/06/19 02:00 LQSA 190200Z VRB02KT 6000 SCT013 BKN030 16/16 Q1018
LDOS - Osijek, Hrvatksa
Ažurirano: 19/06/2018 04:30
Partly Cloudy
Partly Cloudy
 Pravac vetra SZ
Vetar: SZ 11 km/h
Temperatura: 19°C
Tačka rose: 18°C
Vlažnost: 94%
Pritisak: 1017 hPa
Oblaci: Partly Cloudy
Vidljivost: 10 km
Cloud details: Partly Cloudy 1311 m
2018/06/19 02:30 LDOS 190230Z 31006KT 9999 SCT043 19/18 Q1017